| time (UTC) | temp C | wind direction | speed KPH | gust KPH | rain 1hr cm | rain 24hr cm | rain mn cm | humidity % | barometer mb |
| 20260503200054 | 21 | 346 | 3.2 | 14.5 | 0.00 | 0.00 | 0.00 | 51 | 1013.9 |
| 20260503194550 | 21 | 269 | 3.2 | 12.9 | 0.00 | 0.00 | 0.00 | 56 | 1014.1 |
| 20260503193056 | 21 | 233 | 3.2 | 12.9 | 0.00 | 0.00 | 0.00 | 55 | 1014.2 |
| 20260503191611 | 21 | 254 | 3.2 | 11.3 | 0.00 | 0.00 | 0.00 | 57 | 1014.1 |
| 20260503190052 | 21 | 300 | 3.2 | 9.7 | 0.00 | 0.00 | 0.00 | 54 | 1014.4 |
| 20260503184551 | 22 | 331 | 3.2 | 9.7 | 0.00 | 0.00 | 0.00 | 57 | 1014.5 |
| 20260503183053 | 21 | 290 | 3.2 | 8.0 | 0.00 | 0.00 | 0.00 | 54 | 1014.5 |
| 20260503181554 | 21 | 251 | 1.6 | 8.0 | 0.00 | 0.00 | 0.00 | 61 | 1014.5 |
| 20260503180058 | 21 | 0 | 4.8 | 8.0 | 0.00 | 0.00 | 0.00 | 58 | 1014.5 |
| 20260503174554 | 21 | 231 | 3.2 | 9.7 | 0.00 | 0.00 | 0.00 | 60 | 1014.7 |
| 20260503173053 | 20 | 309 | 1.6 | 6.4 | 0.00 | 0.00 | 0.00 | 58 | 1014.7 |
| 20260503171551 | 21 | 0 | 0.0 | 3.2 | 0.00 | 0.00 | 0.00 | 57 | 1014.8 |
| 20260503170105 | 20 | 229 | 1.6 | 4.8 | 0.00 | 0.00 | 0.00 | 61 | 1014.9 |
| 20260503160107 | 16 | 331 | 1.6 | 6.4 | 0.00 | 0.00 | 0.00 | 73 | 1015.3 |
| 20260503100106 | 10 | 0 | 0.0 | 0.0 | 0.00 | 0.00 | 0.00 | 88 | 1014.8 |
| 20260503081552 | 11 | 0 | 0.0 | 0.0 | 0.00 | 0.00 | 0.00 | 84 | 1014.9 |
| 20260503080103 | 11 | 0 | 0.0 | 0.0 | 0.00 | 0.00 | 0.00 | 82 | 1014.7 |
| 20260503071611 | 12 | 0 | 0.0 | 0.0 | 0.00 | 0.00 | 0.00 | 80 | 1014.4 |
| 20260503054610 | 15 | 281 | 1.6 | 3.2 | 0.00 | 0.00 | 0.00 | 68 | 1013.9 |
| 20260503053052 | 16 | 0 | 0.0 | 3.2 | 0.00 | 0.00 | 0.00 | 64 | 1014.0 |
| 20260503051554 | 16 | 5 | 1.6 | 3.2 | 0.00 | 0.00 | 0.00 | 63 | 1014.0 |
| 20260503050051 | 16 | 0 | 0.0 | 4.8 | 0.00 | 0.00 | 0.00 | 63 | 1014.1 |
| 20260503044552 | 16 | 0 | 0.0 | 4.8 | 0.00 | 0.00 | 0.00 | 63 | 1014.0 |
| 20260503043056 | 16 | 26 | 1.6 | 6.4 | 0.00 | 0.00 | 0.00 | 63 | 1014.0 |
| 20260503041553 | 16 | 157 | 0.0 | 4.8 | 0.00 | 0.00 | 0.00 | 61 | 1013.8 |
| 20260503040057 | 16 | 51 | 0.0 | 3.2 | 0.00 | 0.00 | 0.00 | 61 | 1013.7 |
| 20260503034551 | 17 | 0 | 0.0 | 3.2 | 0.00 | 0.00 | 0.00 | 58 | 1013.6 |
| 20260503033051 | 17 | 49 | 0.0 | 4.8 | 0.00 | 0.00 | 0.00 | 56 | 1013.6 |
| 20260503031550 | 18 | 217 | 0.0 | 6.4 | 0.00 | 0.00 | 0.00 | 55 | 1013.5 |
| 20260503030050 | 18 | 234 | 1.6 | 4.8 | 0.00 | 0.00 | 0.00 | 56 | 1013.5 |
| 20260503024552 | 18 | 347 | 0.0 | 4.8 | 0.00 | 0.00 | 0.00 | 55 | 1013.5 |
| 20260503023055 | 19 | 298 | 0.0 | 6.4 | 0.00 | 0.00 | 0.00 | 54 | 1013.5 |
| 20260503021547 | 20 | 301 | 1.6 | 3.2 | 0.00 | 0.00 | 0.00 | 53 | 1013.5 |
| 20260503020053 | 20 | 17 | 1.6 | 6.4 | 0.00 | 0.00 | 0.00 | 51 | 1013.6 |
| 20260503014601 | 21 | 216 | 1.6 | 8.0 | 0.00 | 0.00 | 0.00 | 51 | 1013.8 |
| 20260503013051 | 21 | 288 | 3.2 | 9.7 | 0.00 | 0.00 | 0.00 | 50 | 1013.8 |
| 20260503011553 | 22 | 232 | 1.6 | 9.7 | 0.00 | 0.00 | 0.00 | 49 | 1013.9 |
| 20260503010055 | 22 | 257 | 3.2 | 9.7 | 0.00 | 0.00 | 0.00 | 49 | 1014.0 |
| 20260503004613 | 22 | 321 | 3.2 | 11.3 | 0.00 | 0.00 | 0.00 | 49 | 1014.1 |
| 20260503003056 | 23 | 265 | 3.2 | 12.9 | 0.00 | 0.00 | 0.00 | 49 | 1014.1 |
| 20260503001552 | 23 | 268 | 3.2 | 12.9 | 0.00 | 0.00 | 0.00 | 49 | 1014.2 |
| 20260503000053 | 23 | 310 | 1.6 | 12.9 | 0.00 | 0.00 | 0.00 | 53 | 1014.4 |
| 20260502234556 | 23 | 19 | 3.2 | 11.3 | 0.00 | 0.00 | 0.00 | 52 | 1014.5 |
| 20260502233053 | 22 | 332 | 4.8 | 12.9 | 0.00 | 0.00 | 0.00 | 52 | 1014.6 |
| 20260502231559 | 22 | 200 | 3.2 | 12.9 | 0.00 | 0.00 | 0.00 | 54 | 1014.7 |
| 20260502230053 | 22 | 18 | 3.2 | 11.3 | 0.00 | 0.00 | 0.00 | 53 | 1015.0 |
| 20260502224552 | 21 | 11 | 4.8 | 11.3 | 0.00 | 0.00 | 0.00 | 55 | 1015.2 |
| 20260502223054 | 22 | 329 | 3.2 | 14.5 | 0.00 | 0.00 | 0.00 | 53 | 1015.6 |
| 20260502221558 | 21 | 227 | 6.4 | 12.9 | 0.00 | 0.00 | 0.00 | 53 | 1015.9 |
| 20260502220051 | 21 | 336 | 3.2 | 14.5 | 0.00 | 0.00 | 0.00 | 54 | 1016.0 |
| 20260502214557 | 22 | 264 | 6.4 | 12.9 | 0.00 | 0.00 | 0.00 | 56 | 1016.1 |
| 20260502213054 | 22 | 280 | 4.8 | 12.9 | 0.00 | 0.00 | 0.00 | 55 | 1016.4 |
| 20260502211555 | 21 | 315 | 3.2 | 16.1 | 0.00 | 0.00 | 0.00 | 55 | 1016.4 |
| 20260502210106 | 21 | 289 | 4.8 | 14.5 | 0.00 | 0.00 | 0.00 | 59 | 1016.6 |
| 20260502204558 | 21 | 286 | 4.8 | 12.9 | 0.00 | 0.00 | 0.00 | 58 | 1016.7 |
| 20260502203059 | 20 | 279 | 6.4 | 16.1 | 0.00 | 0.00 | 0.00 | 59 | 1016.8 |
| 20260502201550 | 21 | 272 | 4.8 | 14.5 | 0.00 | 0.00 | 0.00 | 62 | 1017.0 |